Port Alfred, South Africa
Current Conditions -  °F | °C
As of 8:00 PM on Tuesday 21 Oct 2014 (Local Time) from FAEL Reporting Station
Broken Clouds Broken Clouds  
Wind Chill: 64°   Ceiling: 2500
Heat Index: 64°   Visibility: 6mi
Dew Point: 61°   Wind: 14mph
Humidity: 88%   Direction: 70°ENE
Pressure: 30.21"   Gusts: NA
Location:  33.6°S, 26.88°E
Report Text: FAEL 211800Z 07012KT 9999 SCT017 BKN025 18/16 Q1023
Loading
Personal Weather Stations






























Interactive Weather Map
Tropical Storm Tracking
New forecast layout! Learn more

10-Day Weather Forecast

Advertisements
Track Severe Weather on mobile